sensor_id;sensor_type;location;lat;lon;timestamp;P1;durP1;ratioP1;P2;durP2;ratioP2
9214;SDS011;4642;51.364;6.788;2023-04-24T00:02:07;1.37;;;0.70;;
9214;SDS011;4642;51.364;6.788;2023-04-24T00:04:35;2.40;;;0.70;;
9214;SDS011;4642;51.364;6.788;2023-04-24T00:07:05;1.07;;;0.70;;
9214;SDS011;4642;51.364;6.788;2023-04-24T00:09:31;2.00;;;0.90;;
9214;SDS011;4642;51.364;6.788;2023-04-24T00:11:57;1.40;;;0.80;;
9214;SDS011;4642;51.364;6.788;2023-04-24T00:14:23;2.37;;;0.80;;
9214;SDS011;4642;51.364;6.788;2023-04-24T00:16:48;1.20;;;0.80;;
9214;SDS011;4642;51.364;6.788;2023-04-24T00:19:14;2.10;;;1.10;;
9214;SDS011;4642;51.364;6.788;2023-04-24T00:21:40;0.60;;;0.60;;
9214;SDS011;4642;51.364;6.788;2023-04-24T00:24:06;1.00;;;0.90;;
9214;SDS011;4642;51.364;6.788;2023-04-24T00:26:33;2.97;;;1.10;;
9214;SDS011;4642;51.364;6.788;2023-04-24T00:28:59;1.40;;;1.30;;
9214;SDS011;4642;51.364;6.788;2023-04-24T00:31:25;0.70;;;0.70;;
9214;SDS011;4642;51.364;6.788;2023-04-24T00:33:50;3.67;;;1.17;;
9214;SDS011;4642;51.364;6.788;2023-04-24T00:36:16;1.97;;;1.00;;
9214;SDS011;4642;51.364;6.788;2023-04-24T00:38:44;3.00;;;1.07;;
9214;SDS011;4642;51.364;6.788;2023-04-24T00:41:09;1.73;;;1.00;;
9214;SDS011;4642;51.364;6.788;2023-04-24T00:43:35;2.50;;;1.10;;
9214;SDS011;4642;51.364;6.788;2023-04-24T00:46:00;2.17;;;1.17;;
9214;SDS011;4642;51.364;6.788;2023-04-24T00:48:26;1.37;;;0.80;;
9214;SDS011;4642;51.364;6.788;2023-04-24T00:50:52;2.67;;;1.10;;
9214;SDS011;4642;51.364;6.788;2023-04-24T00:53:18;1.57;;;1.17;;
9214;SDS011;4642;51.364;6.788;2023-04-24T00:55:44;4.17;;;1.50;;
9214;SDS011;4642;51.364;6.788;2023-04-24T00:58:10;1.67;;;1.20;;
9214;SDS011;4642;51.364;6.788;2023-04-24T01:00:36;3.10;;;2.00;;
9214;SDS011;4642;51.364;6.788;2023-04-24T01:03:01;3.00;;;2.67;;
9214;SDS011;4642;51.364;6.788;2023-04-24T01:05:29;3.30;;;2.67;;
9214;SDS011;4642;51.364;6.788;2023-04-24T01:07:55;4.67;;;2.67;;
9214;SDS011;4642;51.364;6.788;2023-04-24T01:10:21;3.87;;;2.40;;
9214;SDS011;4642;51.364;6.788;2023-04-24T01:12:49;3.90;;;2.30;;
9214;SDS011;4642;51.364;6.788;2023-04-24T01:15:15;2.80;;;2.47;;
9214;SDS011;4642;51.364;6.788;2023-04-24T01:17:41;6.10;;;2.17;;
9214;SDS011;4642;51.364;6.788;2023-04-24T01:20:06;2.33;;;2.03;;
9214;SDS011;4642;51.364;6.788;2023-04-24T01:22:33;2.53;;;2.33;;
9214;SDS011;4642;51.364;6.788;2023-04-24T01:24:59;3.57;;;2.13;;
9214;SDS011;4642;51.364;6.788;2023-04-24T01:27:25;3.20;;;2.70;;
9214;SDS011;4642;51.364;6.788;2023-04-24T01:29:51;3.50;;;2.50;;
9214;SDS011;4642;51.364;6.788;2023-04-24T01:32:16;3.37;;;2.50;;
9214;SDS011;4642;51.364;6.788;2023-04-24T01:34:43;3.53;;;2.53;;
9214;SDS011;4642;51.364;6.788;2023-04-24T01:37:10;4.67;;;2.90;;
9214;SDS011;4642;51.364;6.788;2023-04-24T01:39:35;5.23;;;3.10;;
9214;SDS011;4642;51.364;6.788;2023-04-24T01:42:01;4.47;;;2.33;;
9214;SDS011;4642;51.364;6.788;2023-04-24T01:44:30;5.10;;;2.90;;
9214;SDS011;4642;51.364;6.788;2023-04-24T01:46:55;2.20;;;1.93;;
9214;SDS011;4642;51.364;6.788;2023-04-24T01:49:21;3.50;;;2.23;;
9214;SDS011;4642;51.364;6.788;2023-04-24T01:51:47;4.17;;;2.90;;
9214;SDS011;4642;51.364;6.788;2023-04-24T01:54:13;5.00;;;3.20;;
9214;SDS011;4642;51.364;6.788;2023-04-24T01:56:42;5.90;;;3.50;;
9214;SDS011;4642;51.364;6.788;2023-04-24T01:59:11;6.80;;;3.63;;
9214;SDS011;4642;51.364;6.788;2023-04-24T02:01:37;4.60;;;3.17;;
9214;SDS011;4642;51.364;6.788;2023-04-24T02:04:04;5.40;;;3.50;;
9214;SDS011;4642;51.364;6.788;2023-04-24T02:06:30;6.87;;;3.87;;
9214;SDS011;4642;51.364;6.788;2023-04-24T02:08:56;4.37;;;3.50;;
9214;SDS011;4642;51.364;6.788;2023-04-24T02:11:23;9.50;;;3.93;;
9214;SDS011;4642;51.364;6.788;2023-04-24T02:13:48;8.83;;;4.57;;
9214;SDS011;4642;51.364;6.788;2023-04-24T02:16:15;8.10;;;4.23;;
9214;SDS011;4642;51.364;6.788;2023-04-24T02:18:40;7.17;;;5.10;;
9214;SDS011;4642;51.364;6.788;2023-04-24T02:21:06;9.33;;;5.30;;
9214;SDS011;4642;51.364;6.788;2023-04-24T02:23:31;9.10;;;4.87;;
9214;SDS011;4642;51.364;6.788;2023-04-24T02:25:57;7.20;;;4.93;;
9214;SDS011;4642;51.364;6.788;2023-04-24T02:28:22;8.50;;;5.53;;
9214;SDS011;4642;51.364;6.788;2023-04-24T02:30:48;9.70;;;5.77;;
9214;SDS011;4642;51.364;6.788;2023-04-24T02:33:14;10.83;;;5.90;;
9214;SDS011;4642;51.364;6.788;2023-04-24T02:35:40;9.03;;;5.20;;
9214;SDS011;4642;51.364;6.788;2023-04-24T02:38:05;9.83;;;6.30;;
9214;SDS011;4642;51.364;6.788;2023-04-24T02:40:31;10.83;;;6.10;;
9214;SDS011;4642;51.364;6.788;2023-04-24T02:42:57;7.83;;;6.20;;
9214;SDS011;4642;51.364;6.788;2023-04-24T02:45:22;12.83;;;7.43;;
9214;SDS011;4642;51.364;6.788;2023-04-24T02:47:48;8.90;;;6.40;;
9214;SDS011;4642;51.364;6.788;2023-04-24T02:50:13;10.93;;;6.50;;
9214;SDS011;4642;51.364;6.788;2023-04-24T02:52:39;10.80;;;6.63;;
9214;SDS011;4642;51.364;6.788;2023-04-24T02:55:04;9.30;;;6.40;;
9214;SDS011;4642;51.364;6.788;2023-04-24T02:57:30;13.57;;;6.13;;
9214;SDS011;4642;51.364;6.788;2023-04-24T02:59:56;10.77;;;6.73;;
9214;SDS011;4642;51.364;6.788;2023-04-24T03:02:21;10.60;;;7.57;;
9214;SDS011;4642;51.364;6.788;2023-04-24T03:04:47;9.97;;;7.00;;
9214;SDS011;4642;51.364;6.788;2023-04-24T03:07:13;10.33;;;6.70;;
9214;SDS011;4642;51.364;6.788;2023-04-24T03:09:39;12.97;;;7.43;;
9214;SDS011;4642;51.364;6.788;2023-04-24T03:12:05;12.10;;;7.67;;
9214;SDS011;4642;51.364;6.788;2023-04-24T03:14:31;10.40;;;6.67;;
9214;SDS011;4642;51.364;6.788;2023-04-24T03:16:56;17.10;;;7.50;;
9214;SDS011;4642;51.364;6.788;2023-04-24T03:19:22;14.67;;;7.80;;
9214;SDS011;4642;51.364;6.788;2023-04-24T03:21:48;12.17;;;7.83;;
9214;SDS011;4642;51.364;6.788;2023-04-24T03:24:13;11.47;;;7.37;;
9214;SDS011;4642;51.364;6.788;2023-04-24T03:26:39;14.40;;;8.03;;
9214;SDS011;4642;51.364;6.788;2023-04-24T03:29:04;13.43;;;7.67;;
9214;SDS011;4642;51.364;6.788;2023-04-24T03:31:30;11.63;;;7.60;;
9214;SDS011;4642;51.364;6.788;2023-04-24T03:33:55;9.93;;;7.07;;
9214;SDS011;4642;51.364;6.788;2023-04-24T03:36:21;11.23;;;7.40;;
9214;SDS011;4642;51.364;6.788;2023-04-24T03:38:46;14.03;;;7.60;;
9214;SDS011;4642;51.364;6.788;2023-04-24T03:41:12;16.10;;;8.00;;
9214;SDS011;4642;51.364;6.788;2023-04-24T03:43:37;10.77;;;7.33;;
9214;SDS011;4642;51.364;6.788;2023-04-24T03:46:04;14.93;;;7.13;;
9214;SDS011;4642;51.364;6.788;2023-04-24T03:48:29;12.13;;;7.37;;
9214;SDS011;4642;51.364;6.788;2023-04-24T03:50:55;12.87;;;7.53;;
9214;SDS011;4642;51.364;6.788;2023-04-24T03:53:21;9.37;;;6.60;;
9214;SDS011;4642;51.364;6.788;2023-04-24T03:55:46;12.73;;;7.10;;
9214;SDS011;4642;51.364;6.788;2023-04-24T03:58:12;14.03;;;7.30;;
9214;SDS011;4642;51.364;6.788;2023-04-24T04:00:39;12.10;;;7.93;;
9214;SDS011;4642;51.364;6.788;2023-04-24T04:03:05;10.30;;;7.20;;
9214;SDS011;4642;51.364;6.788;2023-04-24T04:05:31;10.33;;;6.60;;
9214;SDS011;4642;51.364;6.788;2023-04-24T04:07:56;12.90;;;7.47;;
9214;SDS011;4642;51.364;6.788;2023-04-24T04:10:22;8.63;;;6.90;;
9214;SDS011;4642;51.364;6.788;2023-04-24T04:12:47;9.13;;;7.00;;
9214;SDS011;4642;51.364;6.788;2023-04-24T04:15:13;12.60;;;6.90;;
9214;SDS011;4642;51.364;6.788;2023-04-24T04:17:39;9.17;;;6.80;;
9214;SDS011;4642;51.364;6.788;2023-04-24T04:20:04;19.23;;;7.33;;
9214;SDS011;4642;51.364;6.788;2023-04-24T04:22:37;9.93;;;6.50;;
9214;SDS011;4642;51.364;6.788;2023-04-24T04:25:03;10.20;;;6.40;;
9214;SDS011;4642;51.364;6.788;2023-04-24T04:27:29;11.10;;;7.20;;
9214;SDS011;4642;51.364;6.788;2023-04-24T04:29:57;11.80;;;6.77;;
9214;SDS011;4642;51.364;6.788;2023-04-24T04:32:24;8.80;;;6.67;;
9214;SDS011;4642;51.364;6.788;2023-04-24T04:34:49;10.87;;;7.47;;
9214;SDS011;4642;51.364;6.788;2023-04-24T04:37:18;13.67;;;6.60;;
9214;SDS011;4642;51.364;6.788;2023-04-24T04:39:43;10.00;;;6.83;;
9214;SDS011;4642;51.364;6.788;2023-04-24T04:42:09;8.67;;;6.40;;
9214;SDS011;4642;51.364;6.788;2023-04-24T04:44:35;9.80;;;6.50;;
9214;SDS011;4642;51.364;6.788;2023-04-24T04:47:01;8.10;;;6.57;;
9214;SDS011;4642;51.364;6.788;2023-04-24T04:49:30;13.90;;;6.13;;
9214;SDS011;4642;51.364;6.788;2023-04-24T04:51:56;10.13;;;7.00;;
9214;SDS011;4642;51.364;6.788;2023-04-24T04:54:22;10.27;;;6.10;;
9214;SDS011;4642;51.364;6.788;2023-04-24T04:56:49;7.57;;;6.47;;
9214;SDS011;4642;51.364;6.788;2023-04-24T04:59:15;10.97;;;6.30;;
9214;SDS011;4642;51.364;6.788;2023-04-24T05:01:41;8.00;;;5.37;;
9214;SDS011;4642;51.364;6.788;2023-04-24T05:04:06;8.30;;;5.67;;
9214;SDS011;4642;51.364;6.788;2023-04-24T05:06:32;9.53;;;6.20;;
9214;SDS011;4642;51.364;6.788;2023-04-24T05:08:57;8.40;;;6.07;;
9214;SDS011;4642;51.364;6.788;2023-04-24T05:11:23;8.60;;;5.50;;
9214;SDS011;4642;51.364;6.788;2023-04-24T05:13:48;8.70;;;6.10;;
9214;SDS011;4642;51.364;6.788;2023-04-24T05:16:14;8.97;;;5.70;;
9214;SDS011;4642;51.364;6.788;2023-04-24T05:18:40;8.13;;;5.60;;
9214;SDS011;4642;51.364;6.788;2023-04-24T05:21:05;10.17;;;6.50;;
9214;SDS011;4642;51.364;6.788;2023-04-24T05:23:31;11.23;;;5.93;;
9214;SDS011;4642;51.364;6.788;2023-04-24T05:25:56;10.07;;;6.33;;
9214;SDS011;4642;51.364;6.788;2023-04-24T05:28:22;7.13;;;6.30;;
9214;SDS011;4642;51.364;6.788;2023-04-24T05:30:47;7.03;;;5.73;;
9214;SDS011;4642;51.364;6.788;2023-04-24T05:33:13;11.17;;;6.53;;
9214;SDS011;4642;51.364;6.788;2023-04-24T05:35:40;9.73;;;7.37;;
9214;SDS011;4642;51.364;6.788;2023-04-24T05:38:10;9.73;;;5.97;;
9214;SDS011;4642;51.364;6.788;2023-04-24T05:40:37;8.97;;;6.30;;
9214;SDS011;4642;51.364;6.788;2023-04-24T05:43:02;8.00;;;6.33;;
9214;SDS011;4642;51.364;6.788;2023-04-24T05:45:28;8.00;;;6.57;;
9214;SDS011;4642;51.364;6.788;2023-04-24T05:47:53;9.40;;;6.00;;
9214;SDS011;4642;51.364;6.788;2023-04-24T05:50:19;8.90;;;6.03;;
9214;SDS011;4642;51.364;6.788;2023-04-24T05:52:45;7.57;;;5.60;;
9214;SDS011;4642;51.364;6.788;2023-04-24T05:55:10;6.20;;;5.60;;
9214;SDS011;4642;51.364;6.788;2023-04-24T05:57:36;9.13;;;5.87;;
9214;SDS011;4642;51.364;6.788;2023-04-24T06:00:02;6.83;;;4.87;;
9214;SDS011;4642;51.364;6.788;2023-04-24T06:02:29;6.20;;;5.23;;
9214;SDS011;4642;51.364;6.788;2023-04-24T06:04:57;8.63;;;6.13;;
9214;SDS011;4642;51.364;6.788;2023-04-24T06:07:24;7.57;;;6.03;;
9214;SDS011;4642;51.364;6.788;2023-04-24T06:09:51;8.40;;;5.17;;
9214;SDS011;4642;51.364;6.788;2023-04-24T06:12:17;6.40;;;5.27;;
9214;SDS011;4642;51.364;6.788;2023-04-24T06:14:42;5.73;;;5.03;;
9214;SDS011;4642;51.364;6.788;2023-04-24T06:17:08;8.87;;;4.97;;
9214;SDS011;4642;51.364;6.788;2023-04-24T06:19:33;7.27;;;5.20;;
9214;SDS011;4642;51.364;6.788;2023-04-24T06:21:59;6.57;;;5.10;;
9214;SDS011;4642;51.364;6.788;2023-04-24T06:24:28;5.70;;;4.90;;
9214;SDS011;4642;51.364;6.788;2023-04-24T06:26:53;9.20;;;5.40;;
9214;SDS011;4642;51.364;6.788;2023-04-24T06:29:19;6.63;;;5.40;;
9214;SDS011;4642;51.364;6.788;2023-04-24T06:31:45;7.83;;;4.70;;
9214;SDS011;4642;51.364;6.788;2023-04-24T06:34:10;8.33;;;4.77;;
9214;SDS011;4642;51.364;6.788;2023-04-24T06:36:36;7.67;;;4.57;;
9214;SDS011;4642;51.364;6.788;2023-04-24T06:39:02;6.40;;;5.37;;
9214;SDS011;4642;51.364;6.788;2023-04-24T06:41:28;7.30;;;4.33;;
9214;SDS011;4642;51.364;6.788;2023-04-24T06:43:54;6.57;;;4.60;;
9214;SDS011;4642;51.364;6.788;2023-04-24T06:46:19;5.57;;;4.20;;
9214;SDS011;4642;51.364;6.788;2023-04-24T06:48:48;5.77;;;3.70;;
9214;SDS011;4642;51.364;6.788;2023-04-24T06:51:14;4.73;;;3.53;;
9214;SDS011;4642;51.364;6.788;2023-04-24T06:53:40;4.83;;;3.50;;
9214;SDS011;4642;51.364;6.788;2023-04-24T06:56:05;5.00;;;3.30;;
9214;SDS011;4642;51.364;6.788;2023-04-24T06:58:31;3.83;;;3.07;;
9214;SDS011;4642;51.364;6.788;2023-04-24T07:00:57;4.00;;;3.33;;
9214;SDS011;4642;51.364;6.788;2023-04-24T07:03:22;4.80;;;3.20;;
9214;SDS011;4642;51.364;6.788;2023-04-24T07:05:48;4.60;;;3.37;;
9214;SDS011;4642;51.364;6.788;2023-04-24T07:08:14;4.00;;;2.90;;
9214;SDS011;4642;51.364;6.788;2023-04-24T07:10:41;4.00;;;2.70;;
9214;SDS011;4642;51.364;6.788;2023-04-24T07:13:07;4.20;;;2.80;;
9214;SDS011;4642;51.364;6.788;2023-04-24T07:15:33;3.63;;;2.50;;
9214;SDS011;4642;51.364;6.788;2023-04-24T07:17:59;4.23;;;2.43;;
9214;SDS011;4642;51.364;6.788;2023-04-24T07:20:25;4.10;;;2.50;;
9214;SDS011;4642;51.364;6.788;2023-04-24T07:22:50;3.30;;;2.33;;
9214;SDS011;4642;51.364;6.788;2023-04-24T07:25:16;2.43;;;1.70;;
9214;SDS011;4642;51.364;6.788;2023-04-24T07:27:42;2.83;;;1.63;;
9214;SDS011;4642;51.364;6.788;2023-04-24T07:30:08;2.13;;;1.10;;
9214;SDS011;4642;51.364;6.788;2023-04-24T07:32:34;3.67;;;1.00;;
9214;SDS011;4642;51.364;6.788;2023-04-24T07:35:00;0.73;;;0.60;;
9214;SDS011;4642;51.364;6.788;2023-04-24T07:37:25;2.27;;;0.70;;
9214;SDS011;4642;51.364;6.788;2023-04-24T07:39:51;0.50;;;0.50;;
9214;SDS011;4642;51.364;6.788;2023-04-24T07:42:16;0.80;;;0.60;;
9214;SDS011;4642;51.364;6.788;2023-04-24T07:44:42;2.30;;;0.50;;
9214;SDS011;4642;51.364;6.788;2023-04-24T07:47:07;0.50;;;0.50;;
9214;SDS011;4642;51.364;6.788;2023-04-24T07:49:33;1.50;;;0.60;;
9214;SDS011;4642;51.364;6.788;2023-04-24T07:51:59;0.57;;;0.50;;
9214;SDS011;4642;51.364;6.788;2023-04-24T07:54:27;0.47;;;0.47;;
9214;SDS011;4642;51.364;6.788;2023-04-24T07:56:53;1.23;;;0.70;;
9214;SDS011;4642;51.364;6.788;2023-04-24T07:59:19;0.47;;;0.47;;
9214;SDS011;4642;51.364;6.788;2023-04-24T08:01:44;1.37;;;0.50;;
9214;SDS011;4642;51.364;6.788;2023-04-24T08:04:10;0.70;;;0.60;;
9214;SDS011;4642;51.364;6.788;2023-04-24T08:06:36;2.67;;;0.80;;
9214;SDS011;4642;51.364;6.788;2023-04-24T08:09:01;1.77;;;0.80;;
9214;SDS011;4642;51.364;6.788;2023-04-24T08:11:27;0.60;;;0.60;;
9214;SDS011;4642;51.364;6.788;2023-04-24T08:13:53;0.70;;;0.70;;
9214;SDS011;4642;51.364;6.788;2023-04-24T08:16:19;1.50;;;0.90;;
9214;SDS011;4642;51.364;6.788;2023-04-24T08:18:45;0.53;;;0.53;;
9214;SDS011;4642;51.364;6.788;2023-04-24T08:21:10;1.10;;;0.90;;
9214;SDS011;4642;51.364;6.788;2023-04-24T08:23:37;1.13;;;0.90;;
9214;SDS011;4642;51.364;6.788;2023-04-24T08:26:03;1.70;;;1.03;;
9214;SDS011;4642;51.364;6.788;2023-04-24T08:28:29;0.73;;;0.63;;
9214;SDS011;4642;51.364;6.788;2023-04-24T08:30:54;2.50;;;0.90;;
9214;SDS011;4642;51.364;6.788;2023-04-24T08:33:21;1.40;;;1.00;;
9214;SDS011;4642;51.364;6.788;2023-04-24T08:35:47;2.93;;;0.87;;
9214;SDS011;4642;51.364;6.788;2023-04-24T08:38:13;0.83;;;0.70;;
9214;SDS011;4642;51.364;6.788;2023-04-24T08:40:38;0.50;;;0.50;;
9214;SDS011;4642;51.364;6.788;2023-04-24T08:43:04;0.57;;;0.57;;
9214;SDS011;4642;51.364;6.788;2023-04-24T08:45:31;0.80;;;0.60;;
9214;SDS011;4642;51.364;6.788;2023-04-24T08:47:57;1.00;;;0.60;;
9214;SDS011;4642;51.364;6.788;2023-04-24T08:50:24;2.20;;;0.93;;
9214;SDS011;4642;51.364;6.788;2023-04-24T08:52:51;1.53;;;0.80;;
9214;SDS011;4642;51.364;6.788;2023-04-24T08:55:18;1.13;;;0.80;;
9214;SDS011;4642;51.364;6.788;2023-04-24T08:57:45;1.70;;;0.70;;
9214;SDS011;4642;51.364;6.788;2023-04-24T09:00:16;1.27;;;0.80;;
9214;SDS011;4642;51.364;6.788;2023-04-24T09:02:43;2.53;;;1.00;;
9214;SDS011;4642;51.364;6.788;2023-04-24T09:05:10;2.50;;;1.40;;
9214;SDS011;4642;51.364;6.788;2023-04-24T09:07:36;3.67;;;2.60;;
9214;SDS011;4642;51.364;6.788;2023-04-24T09:10:06;14.30;;;8.50;;
9214;SDS011;4642;51.364;6.788;2023-04-24T09:12:32;12.77;;;9.10;;
9214;SDS011;4642;51.364;6.788;2023-04-24T09:14:59;12.87;;;8.40;;
9214;SDS011;4642;51.364;6.788;2023-04-24T09:17:27;10.90;;;7.50;;
9214;SDS011;4642;51.364;6.788;2023-04-24T09:19:53;12.20;;;9.73;;
9214;SDS011;4642;51.364;6.788;2023-04-24T09:22:18;11.13;;;8.20;;
9214;SDS011;4642;51.364;6.788;2023-04-24T09:24:45;16.60;;;9.87;;
9214;SDS011;4642;51.364;6.788;2023-04-24T09:27:11;7.53;;;6.40;;
9214;SDS011;4642;51.364;6.788;2023-04-24T09:29:37;14.23;;;6.97;;
9214;SDS011;4642;51.364;6.788;2023-04-24T09:32:19;18.97;;;8.90;;
9214;SDS011;4642;51.364;6.788;2023-04-24T09:34:46;7.67;;;5.97;;
9214;SDS011;4642;51.364;6.788;2023-04-24T09:37:18;9.70;;;6.30;;
9214;SDS011;4642;51.364;6.788;2023-04-24T09:42:35;6.83;;;4.47;;
9214;SDS011;4642;51.364;6.788;2023-04-24T09:45:00;9.50;;;6.00;;
9214;SDS011;4642;51.364;6.788;2023-04-24T09:47:27;8.40;;;5.80;;
9214;SDS011;4642;51.364;6.788;2023-04-24T09:49:53;10.73;;;6.20;;
9214;SDS011;4642;51.364;6.788;2023-04-24T09:52:23;10.83;;;7.13;;
9214;SDS011;4642;51.364;6.788;2023-04-24T09:54:53;18.80;;;7.93;;
9214;SDS011;4642;51.364;6.788;2023-04-24T09:57:19;10.80;;;7.47;;
9214;SDS011;4642;51.364;6.788;2023-04-24T09:59:45;10.57;;;5.63;;
9214;SDS011;4642;51.364;6.788;2023-04-24T10:02:18;11.77;;;5.10;;
9214;SDS011;4642;51.364;6.788;2023-04-24T10:04:53;9.43;;;5.27;;
9214;SDS011;4642;51.364;6.788;2023-04-24T10:07:21;12.13;;;7.07;;
9214;SDS011;4642;51.364;6.788;2023-04-24T10:09:47;18.47;;;9.03;;
9214;SDS011;4642;51.364;6.788;2023-04-24T10:12:12;18.47;;;8.73;;
9214;SDS011;4642;51.364;6.788;2023-04-24T10:14:39;18.40;;;8.63;;
9214;SDS011;4642;51.364;6.788;2023-04-24T10:17:05;21.60;;;11.93;;
9214;SDS011;4642;51.364;6.788;2023-04-24T10:19:31;21.50;;;11.07;;
9214;SDS011;4642;51.364;6.788;2023-04-24T10:21:58;22.50;;;11.43;;
9214;SDS011;4642;51.364;6.788;2023-04-24T10:24:25;21.37;;;8.53;;
9214;SDS011;4642;51.364;6.788;2023-04-24T10:26:51;18.70;;;8.83;;
9214;SDS011;4642;51.364;6.788;2023-04-24T10:29:18;14.13;;;6.67;;
9214;SDS011;4642;51.364;6.788;2023-04-24T10:31:44;19.00;;;9.63;;
9214;SDS011;4642;51.364;6.788;2023-04-24T10:34:11;23.20;;;9.50;;
9214;SDS011;4642;51.364;6.788;2023-04-24T10:36:39;20.27;;;7.43;;
9214;SDS011;4642;51.364;6.788;2023-04-24T10:39:09;21.40;;;8.90;;
9214;SDS011;4642;51.364;6.788;2023-04-24T10:41:37;22.77;;;9.23;;
9214;SDS011;4642;51.364;6.788;2023-04-24T10:44:07;15.17;;;7.07;;
9214;SDS011;4642;51.364;6.788;2023-04-24T10:46:33;17.67;;;6.97;;
9214;SDS011;4642;51.364;6.788;2023-04-24T10:48:59;24.93;;;8.40;;
9214;SDS011;4642;51.364;6.788;2023-04-24T11:00:21;13.10;;;4.93;;
9214;SDS011;4642;51.364;6.788;2023-04-24T11:02:41;8.30;;;3.60;;
9214;SDS011;4642;51.364;6.788;2023-04-24T11:05:17;11.53;;;4.03;;
9214;SDS011;4642;51.364;6.788;2023-04-24T11:10:45;11.53;;;4.70;;
9214;SDS011;4642;51.364;6.788;2023-04-24T11:13:20;8.93;;;4.07;;
9214;SDS011;4642;51.364;6.788;2023-04-24T11:16:11;8.60;;;3.83;;
9214;SDS011;4642;51.364;6.788;2023-04-24T11:18:39;11.27;;;4.17;;
9214;SDS011;4642;51.364;6.788;2023-04-24T11:21:15;13.03;;;4.17;;
9214;SDS011;4642;51.364;6.788;2023-04-24T11:23:42;11.50;;;3.70;;
9214;SDS011;4642;51.364;6.788;2023-04-24T11:26:09;9.93;;;3.67;;
9214;SDS011;4642;51.364;6.788;2023-04-24T11:28:48;14.87;;;3.60;;
9214;SDS011;4642;51.364;6.788;2023-04-24T11:34:11;8.33;;;3.27;;
9214;SDS011;4642;51.364;6.788;2023-04-24T11:36:39;11.50;;;3.73;;
9214;SDS011;4642;51.364;6.788;2023-04-24T11:39:08;9.53;;;3.23;;
9214;SDS011;4642;51.364;6.788;2023-04-24T11:41:35;11.97;;;3.73;;
9214;SDS011;4642;51.364;6.788;2023-04-24T11:44:01;12.87;;;3.63;;
9214;SDS011;4642;51.364;6.788;2023-04-24T11:46:29;12.33;;;4.30;;
9214;SDS011;4642;51.364;6.788;2023-04-24T11:48:55;7.07;;;3.67;;
9214;SDS011;4642;51.364;6.788;2023-04-24T11:51:22;8.83;;;2.87;;
9214;SDS011;4642;51.364;6.788;2023-04-24T11:53:50;7.13;;;3.37;;
9214;SDS011;4642;51.364;6.788;2023-04-24T11:56:19;8.87;;;2.80;;
9214;SDS011;4642;51.364;6.788;2023-04-24T11:58:53;8.00;;;3.03;;
9214;SDS011;4642;51.364;6.788;2023-04-24T12:01:19;8.43;;;2.63;;
9214;SDS011;4642;51.364;6.788;2023-04-24T12:03:49;7.53;;;2.30;;
9214;SDS011;4642;51.364;6.788;2023-04-24T12:06:16;5.07;;;2.33;;
9214;SDS011;4642;51.364;6.788;2023-04-24T12:08:42;9.03;;;2.70;;
9214;SDS011;4642;51.364;6.788;2023-04-24T12:11:11;7.10;;;2.60;;
9214;SDS011;4642;51.364;6.788;2023-04-24T12:13:40;4.73;;;2.10;;
9214;SDS011;4642;51.364;6.788;2023-04-24T12:16:06;7.53;;;2.10;;
9214;SDS011;4642;51.364;6.788;2023-04-24T12:18:32;8.30;;;2.60;;
9214;SDS011;4642;51.364;6.788;2023-04-24T12:23:42;6.03;;;2.87;;
9214;SDS011;4642;51.364;6.788;2023-04-24T12:26:10;8.13;;;3.30;;
9214;SDS011;4642;51.364;6.788;2023-04-24T12:28:36;10.77;;;3.87;;
9214;SDS011;4642;51.364;6.788;2023-04-24T12:31:03;8.77;;;3.73;;
9214;SDS011;4642;51.364;6.788;2023-04-24T12:33:32;9.10;;;4.20;;
9214;SDS011;4642;51.364;6.788;2023-04-24T12:35:59;9.37;;;4.80;;
9214;SDS011;4642;51.364;6.788;2023-04-24T12:38:26;9.80;;;5.00;;
9214;SDS011;4642;51.364;6.788;2023-04-24T12:41:07;16.20;;;5.13;;
9214;SDS011;4642;51.364;6.788;2023-04-24T12:43:53;11.43;;;4.57;;
9214;SDS011;4642;51.364;6.788;2023-04-24T12:46:20;6.67;;;2.93;;
9214;SDS011;4642;51.364;6.788;2023-04-24T12:48:45;9.87;;;2.40;;
9214;SDS011;4642;51.364;6.788;2023-04-24T12:51:11;7.83;;;2.13;;
9214;SDS011;4642;51.364;6.788;2023-04-24T12:53:36;7.47;;;2.00;;
9214;SDS011;4642;51.364;6.788;2023-04-24T12:56:02;5.10;;;1.90;;
9214;SDS011;4642;51.364;6.788;2023-04-24T12:58:28;5.77;;;2.23;;
9214;SDS011;4642;51.364;6.788;2023-04-24T13:00:53;6.97;;;1.67;;
9214;SDS011;4642;51.364;6.788;2023-04-24T13:03:19;4.40;;;1.60;;
9214;SDS011;4642;51.364;6.788;2023-04-24T13:05:45;5.43;;;1.60;;
9214;SDS011;4642;51.364;6.788;2023-04-24T13:08:10;6.33;;;1.63;;
9214;SDS011;4642;51.364;6.788;2023-04-24T13:10:37;3.60;;;1.20;;
9214;SDS011;4642;51.364;6.788;2023-04-24T13:13:03;4.03;;;1.30;;
9214;SDS011;4642;51.364;6.788;2023-04-24T13:15:29;7.80;;;1.53;;
9214;SDS011;4642;51.364;6.788;2023-04-24T13:17:54;4.43;;;1.63;;
9214;SDS011;4642;51.364;6.788;2023-04-24T13:20:20;5.90;;;1.50;;
9214;SDS011;4642;51.364;6.788;2023-04-24T13:22:45;5.40;;;1.90;;
9214;SDS011;4642;51.364;6.788;2023-04-24T13:25:11;7.80;;;3.40;;
9214;SDS011;4642;51.364;6.788;2023-04-24T13:27:39;11.77;;;3.80;;
9214;SDS011;4642;51.364;6.788;2023-04-24T13:30:05;8.00;;;2.47;;
9214;SDS011;4642;51.364;6.788;2023-04-24T13:32:31;7.93;;;2.77;;
9214;SDS011;4642;51.364;6.788;2023-04-24T13:34:58;3.67;;;2.00;;
9214;SDS011;4642;51.364;6.788;2023-04-24T13:37:23;7.53;;;2.30;;
9214;SDS011;4642;51.364;6.788;2023-04-24T13:39:49;8.70;;;1.73;;
9214;SDS011;4642;51.364;6.788;2023-04-24T13:42:15;4.67;;;1.30;;
9214;SDS011;4642;51.364;6.788;2023-04-24T13:44:41;1.90;;;1.03;;
9214;SDS011;4642;51.364;6.788;2023-04-24T13:47:06;1.30;;;0.93;;
9214;SDS011;4642;51.364;6.788;2023-04-24T13:49:32;4.77;;;1.23;;
9214;SDS011;4642;51.364;6.788;2023-04-24T13:51:58;5.80;;;2.53;;
9214;SDS011;4642;51.364;6.788;2023-04-24T13:54:23;9.20;;;2.50;;
9214;SDS011;4642;51.364;6.788;2023-04-24T13:56:50;4.80;;;2.07;;
9214;SDS011;4642;51.364;6.788;2023-04-24T13:59:16;3.17;;;1.20;;
9214;SDS011;4642;51.364;6.788;2023-04-24T14:01:42;1.20;;;0.63;;
9214;SDS011;4642;51.364;6.788;2023-04-24T14:04:09;2.93;;;1.33;;
9214;SDS011;4642;51.364;6.788;2023-04-24T14:06:35;2.47;;;1.03;;
9214;SDS011;4642;51.364;6.788;2023-04-24T14:09:00;3.30;;;0.80;;
9214;SDS011;4642;51.364;6.788;2023-04-24T14:11:26;2.57;;;1.07;;
9214;SDS011;4642;51.364;6.788;2023-04-24T14:13:52;1.57;;;0.80;;
9214;SDS011;4642;51.364;6.788;2023-04-24T14:16:20;2.67;;;1.23;;
9214;SDS011;4642;51.364;6.788;2023-04-24T14:18:45;2.77;;;1.23;;
9214;SDS011;4642;51.364;6.788;2023-04-24T14:21:11;1.40;;;0.70;;
9214;SDS011;4642;51.364;6.788;2023-04-24T14:23:36;1.27;;;0.80;;
9214;SDS011;4642;51.364;6.788;2023-04-24T14:26:02;1.23;;;0.70;;
9214;SDS011;4642;51.364;6.788;2023-04-24T14:28:28;4.67;;;1.00;;
9214;SDS011;4642;51.364;6.788;2023-04-24T14:30:53;3.10;;;1.10;;
9214;SDS011;4642;51.364;6.788;2023-04-24T14:33:19;3.33;;;0.87;;
9214;SDS011;4642;51.364;6.788;2023-04-24T14:35:45;2.93;;;0.93;;
9214;SDS011;4642;51.364;6.788;2023-04-24T14:38:11;2.63;;;0.70;;
9214;SDS011;4642;51.364;6.788;2023-04-24T14:40:37;3.53;;;0.77;;
9214;SDS011;4642;51.364;6.788;2023-04-24T14:43:03;1.40;;;0.90;;
9214;SDS011;4642;51.364;6.788;2023-04-24T14:45:28;5.80;;;0.90;;
9214;SDS011;4642;51.364;6.788;2023-04-24T14:47:54;3.20;;;1.00;;
9214;SDS011;4642;51.364;6.788;2023-04-24T14:50:20;3.40;;;1.73;;
9214;SDS011;4642;51.364;6.788;2023-04-24T14:52:46;4.73;;;2.03;;
9214;SDS011;4642;51.364;6.788;2023-04-24T14:55:12;7.50;;;2.40;;
9214;SDS011;4642;51.364;6.788;2023-04-24T14:57:38;6.30;;;3.13;;
9214;SDS011;4642;51.364;6.788;2023-04-24T15:00:04;11.07;;;5.73;;
9214;SDS011;4642;51.364;6.788;2023-04-24T15:02:33;11.83;;;5.50;;
9214;SDS011;4642;51.364;6.788;2023-04-24T15:04:58;5.57;;;2.43;;
9214;SDS011;4642;51.364;6.788;2023-04-24T15:07:24;9.47;;;3.50;;
9214;SDS011;4642;51.364;6.788;2023-04-24T15:09:50;5.70;;;2.70;;
9214;SDS011;4642;51.364;6.788;2023-04-24T15:12:15;6.73;;;3.13;;
9214;SDS011;4642;51.364;6.788;2023-04-24T15:14:41;3.70;;;1.80;;
9214;SDS011;4642;51.364;6.788;2023-04-24T15:17:07;6.83;;;2.63;;
9214;SDS011;4642;51.364;6.788;2023-04-24T15:19:32;6.10;;;2.50;;
9214;SDS011;4642;51.364;6.788;2023-04-24T15:21:58;3.93;;;1.80;;
9214;SDS011;4642;51.364;6.788;2023-04-24T15:24:23;4.60;;;1.30;;
9214;SDS011;4642;51.364;6.788;2023-04-24T15:26:49;3.80;;;1.20;;
9214;SDS011;4642;51.364;6.788;2023-04-24T15:29:15;3.10;;;1.60;;